sensor_id;sensor_type;location;lat;lon;timestamp;temperature;humidity
30534;DHT22;17318;52.390;9.754;2023-04-03T00:02:17;5.60;90.60
30534;DHT22;17318;52.390;9.754;2023-04-03T00:04:43;5.60;90.60
30534;DHT22;17318;52.390;9.754;2023-04-03T00:07:08;5.60;90.50
30534;DHT22;17318;52.390;9.754;2023-04-03T00:09:34;5.50;90.60
30534;DHT22;17318;52.390;9.754;2023-04-03T00:12:00;5.50;90.70
30534;DHT22;17318;52.390;9.754;2023-04-03T00:14:26;5.40;90.70
30534;DHT22;17318;52.390;9.754;2023-04-03T00:16:53;5.40;90.80
30534;DHT22;17318;52.390;9.754;2023-04-03T00:19:18;5.40;90.80
30534;DHT22;17318;52.390;9.754;2023-04-03T00:21:44;5.40;90.90
30534;DHT22;17318;52.390;9.754;2023-04-03T00:24:10;5.40;91.00
30534;DHT22;17318;52.390;9.754;2023-04-03T00:26:36;5.30;91.00
30534;DHT22;17318;52.390;9.754;2023-04-03T00:29:02;5.30;91.10
30534;DHT22;17318;52.390;9.754;2023-04-03T00:31:27;5.30;91.20
30534;DHT22;17318;52.390;9.754;2023-04-03T00:33:53;5.30;91.20
30534;DHT22;17318;52.390;9.754;2023-04-03T00:36:19;5.30;91.30
30534;DHT22;17318;52.390;9.754;2023-04-03T00:38:44;5.20;91.30
30534;DHT22;17318;52.390;9.754;2023-04-03T00:41:10;5.20;91.40
30534;DHT22;17318;52.390;9.754;2023-04-03T00:43:36;5.20;91.50
30534;DHT22;17318;52.390;9.754;2023-04-03T00:46:02;5.20;91.50
30534;DHT22;17318;52.390;9.754;2023-04-03T00:48:37;5.10;91.70
30534;DHT22;17318;52.390;9.754;2023-04-03T00:51:06;5.00;92.00
30534;DHT22;17318;52.390;9.754;2023-04-03T00:53:59;5.10;92.20
30534;DHT22;17318;52.390;9.754;2023-04-03T00:56:27;4.90;92.30
30534;DHT22;17318;52.390;9.754;2023-04-03T00:59:05;4.90;92.40
30534;DHT22;17318;52.390;9.754;2023-04-03T01:01:31;4.90;92.60
30534;DHT22;17318;52.390;9.754;2023-04-03T01:04:01;5.10;92.30
30534;DHT22;17318;52.390;9.754;2023-04-03T01:06:30;5.10;92.10
30534;DHT22;17318;52.390;9.754;2023-04-03T01:08:58;5.20;92.00
30534;DHT22;17318;52.390;9.754;2023-04-03T01:11:25;5.20;92.00
30534;DHT22;17318;52.390;9.754;2023-04-03T01:13:51;5.20;92.00
30534;DHT22;17318;52.390;9.754;2023-04-03T01:16:17;5.20;92.00
30534;DHT22;17318;52.390;9.754;2023-04-03T01:18:44;5.20;92.00
30534;DHT22;17318;52.390;9.754;2023-04-03T01:26:30;5.10;92.00
30534;DHT22;17318;52.390;9.754;2023-04-03T01:28:58;5.10;92.10
30534;DHT22;17318;52.390;9.754;2023-04-03T01:34:12;5.00;92.10
30534;DHT22;17318;52.390;9.754;2023-04-03T01:36:37;5.00;92.20
30534;DHT22;17318;52.390;9.754;2023-04-03T01:39:03;5.00;92.10
30534;DHT22;17318;52.390;9.754;2023-04-03T01:41:29;5.00;92.20
30534;DHT22;17318;52.390;9.754;2023-04-03T01:43:55;4.90;92.20
30534;DHT22;17318;52.390;9.754;2023-04-03T01:46:21;4.80;92.30
30534;DHT22;17318;52.390;9.754;2023-04-03T01:48:47;4.90;92.40
30534;DHT22;17318;52.390;9.754;2023-04-03T01:51:13;4.90;92.40
30534;DHT22;17318;52.390;9.754;2023-04-03T01:53:39;4.80;92.40
30534;DHT22;17318;52.390;9.754;2023-04-03T01:56:05;4.80;92.40
30534;DHT22;17318;52.390;9.754;2023-04-03T01:58:31;4.80;92.40
30534;DHT22;17318;52.390;9.754;2023-04-03T02:00:56;4.80;92.40
30534;DHT22;17318;52.390;9.754;2023-04-03T02:03:22;4.80;92.50
30534;DHT22;17318;52.390;9.754;2023-04-03T02:05:49;4.80;92.60
30534;DHT22;17318;52.390;9.754;2023-04-03T02:08:15;4.80;92.70
30534;DHT22;17318;52.390;9.754;2023-04-03T02:10:43;4.70;92.70
30534;DHT22;17318;52.390;9.754;2023-04-03T02:13:09;4.70;92.70
30534;DHT22;17318;52.390;9.754;2023-04-03T02:15:38;4.70;92.70
30534;DHT22;17318;52.390;9.754;2023-04-03T02:18:04;4.70;92.70
30534;DHT22;17318;52.390;9.754;2023-04-03T02:20:29;4.70;92.70
30534;DHT22;17318;52.390;9.754;2023-04-03T02:22:55;4.60;92.70
30534;DHT22;17318;52.390;9.754;2023-04-03T02:25:21;4.60;92.80
30534;DHT22;17318;52.390;9.754;2023-04-03T02:27:47;4.60;92.80
30534;DHT22;17318;52.390;9.754;2023-04-03T02:30:13;4.60;92.80
30534;DHT22;17318;52.390;9.754;2023-04-03T02:32:41;4.60;92.90
30534;DHT22;17318;52.390;9.754;2023-04-03T02:35:08;4.50;92.90
30534;DHT22;17318;52.390;9.754;2023-04-03T02:37:34;4.50;92.90
30534;DHT22;17318;52.390;9.754;2023-04-03T02:40:00;4.50;93.00
30534;DHT22;17318;52.390;9.754;2023-04-03T02:42:25;4.50;93.00
30534;DHT22;17318;52.390;9.754;2023-04-03T02:44:51;4.40;93.10
30534;DHT22;17318;52.390;9.754;2023-04-03T02:47:17;4.40;93.20
30534;DHT22;17318;52.390;9.754;2023-04-03T02:49:43;4.30;93.20
30534;DHT22;17318;52.390;9.754;2023-04-03T02:52:14;4.30;93.20
30534;DHT22;17318;52.390;9.754;2023-04-03T02:54:40;4.30;93.30
30534;DHT22;17318;52.390;9.754;2023-04-03T02:57:06;4.20;93.40
30534;DHT22;17318;52.390;9.754;2023-04-03T02:59:35;4.20;93.40
30534;DHT22;17318;52.390;9.754;2023-04-03T03:02:01;4.20;93.40
30534;DHT22;17318;52.390;9.754;2023-04-03T03:04:26;4.40;93.60
30534;DHT22;17318;52.390;9.754;2023-04-03T03:06:52;4.20;93.50
30534;DHT22;17318;52.390;9.754;2023-04-03T03:09:18;4.20;93.60
30534;DHT22;17318;52.390;9.754;2023-04-03T03:11:44;4.10;93.60
30534;DHT22;17318;52.390;9.754;2023-04-03T03:14:09;4.10;93.70
30534;DHT22;17318;52.390;9.754;2023-04-03T03:16:35;4.10;93.80
30534;DHT22;17318;52.390;9.754;2023-04-03T03:19:01;4.10;93.80
30534;DHT22;17318;52.390;9.754;2023-04-03T03:21:27;4.10;93.90
30534;DHT22;17318;52.390;9.754;2023-04-03T03:23:53;4.10;93.80
30534;DHT22;17318;52.390;9.754;2023-04-03T03:26:18;4.00;93.80
30534;DHT22;17318;52.390;9.754;2023-04-03T03:28:44;4.00;93.90
30534;DHT22;17318;52.390;9.754;2023-04-03T03:31:10;4.10;94.00
30534;DHT22;17318;52.390;9.754;2023-04-03T03:33:36;4.00;94.00
30534;DHT22;17318;52.390;9.754;2023-04-03T03:36:02;4.00;93.90
30534;DHT22;17318;52.390;9.754;2023-04-03T03:38:28;4.00;93.90
30534;DHT22;17318;52.390;9.754;2023-04-03T03:40:53;4.00;94.10
30534;DHT22;17318;52.390;9.754;2023-04-03T03:43:19;4.00;94.30
30534;DHT22;17318;52.390;9.754;2023-04-03T03:45:50;3.90;94.10
30534;DHT22;17318;52.390;9.754;2023-04-03T03:48:16;4.00;94.20
30534;DHT22;17318;52.390;9.754;2023-04-03T03:50:42;3.90;94.10
30534;DHT22;17318;52.390;9.754;2023-04-03T03:53:08;3.90;94.40
30534;DHT22;17318;52.390;9.754;2023-04-03T03:55:33;3.90;94.30
30534;DHT22;17318;52.390;9.754;2023-04-03T03:57:59;3.90;94.40
30534;DHT22;17318;52.390;9.754;2023-04-03T04:00:26;3.90;94.70
30534;DHT22;17318;52.390;9.754;2023-04-03T04:02:52;3.90;94.40
30534;DHT22;17318;52.390;9.754;2023-04-03T04:05:18;3.80;94.50
30534;DHT22;17318;52.390;9.754;2023-04-03T04:07:44;3.80;94.60
30534;DHT22;17318;52.390;9.754;2023-04-03T04:10:12;3.80;94.50
30534;DHT22;17318;52.390;9.754;2023-04-03T04:12:39;3.80;94.60
30534;DHT22;17318;52.390;9.754;2023-04-03T04:15:05;3.80;94.70
30534;DHT22;17318;52.390;9.754;2023-04-03T04:17:31;3.80;94.50
30534;DHT22;17318;52.390;9.754;2023-04-03T04:19:57;3.80;94.50
30534;DHT22;17318;52.390;9.754;2023-04-03T04:22:23;3.80;94.50
30534;DHT22;17318;52.390;9.754;2023-04-03T04:24:48;3.70;94.60
30534;DHT22;17318;52.390;9.754;2023-04-03T04:27:14;3.80;94.70
30534;DHT22;17318;52.390;9.754;2023-04-03T04:29:41;3.80;94.70
30534;DHT22;17318;52.390;9.754;2023-04-03T04:32:06;3.80;94.70
30534;DHT22;17318;52.390;9.754;2023-04-03T04:34:32;3.80;94.80
30534;DHT22;17318;52.390;9.754;2023-04-03T04:36:58;3.80;94.80
30534;DHT22;17318;52.390;9.754;2023-04-03T04:39:23;3.70;94.80
30534;DHT22;17318;52.390;9.754;2023-04-03T04:41:49;3.70;94.90
30534;DHT22;17318;52.390;9.754;2023-04-03T04:44:15;3.70;94.90
30534;DHT22;17318;52.390;9.754;2023-04-03T04:46:40;3.70;94.90
30534;DHT22;17318;52.390;9.754;2023-04-03T04:49:06;3.70;95.00
30534;DHT22;17318;52.390;9.754;2023-04-03T04:51:31;3.70;95.00
30534;DHT22;17318;52.390;9.754;2023-04-03T04:53:57;3.70;95.10
30534;DHT22;17318;52.390;9.754;2023-04-03T04:56:23;3.70;95.30
30534;DHT22;17318;52.390;9.754;2023-04-03T04:58:49;3.70;95.20
30534;DHT22;17318;52.390;9.754;2023-04-03T05:01:14;3.70;95.20
30534;DHT22;17318;52.390;9.754;2023-04-03T05:03:40;3.60;95.20
30534;DHT22;17318;52.390;9.754;2023-04-03T05:06:06;3.60;95.30
30534;DHT22;17318;52.390;9.754;2023-04-03T05:08:32;3.70;95.30
30534;DHT22;17318;52.390;9.754;2023-04-03T05:10:58;3.70;95.40
30534;DHT22;17318;52.390;9.754;2023-04-03T05:13:24;3.70;95.30
30534;DHT22;17318;52.390;9.754;2023-04-03T05:15:49;3.70;95.40
30534;DHT22;17318;52.390;9.754;2023-04-03T05:18:15;3.80;95.30
30534;DHT22;17318;52.390;9.754;2023-04-03T05:20:41;3.80;95.20
30534;DHT22;17318;52.390;9.754;2023-04-03T05:23:08;4.00;95.20
30534;DHT22;17318;52.390;9.754;2023-04-03T05:25:34;3.90;95.10
30534;DHT22;17318;52.390;9.754;2023-04-03T05:28:00;3.90;95.10
30534;DHT22;17318;52.390;9.754;2023-04-03T05:30:25;3.90;95.00
30534;DHT22;17318;52.390;9.754;2023-04-03T05:32:51;3.90;95.00
30534;DHT22;17318;52.390;9.754;2023-04-03T05:35:17;3.90;95.10
30534;DHT22;17318;52.390;9.754;2023-04-03T05:37:42;3.90;95.00
30534;DHT22;17318;52.390;9.754;2023-04-03T05:40:08;4.00;95.20
30534;DHT22;17318;52.390;9.754;2023-04-03T05:42:34;4.00;95.30
30534;DHT22;17318;52.390;9.754;2023-04-03T05:45:00;4.00;95.20
30534;DHT22;17318;52.390;9.754;2023-04-03T05:47:25;4.00;95.20
30534;DHT22;17318;52.390;9.754;2023-04-03T05:49:51;3.90;95.10
30534;DHT22;17318;52.390;9.754;2023-04-03T05:52:27;3.90;95.20
30534;DHT22;17318;52.390;9.754;2023-04-03T05:54:54;4.00;95.20
30534;DHT22;17318;52.390;9.754;2023-04-03T05:57:20;3.90;95.20
30534;DHT22;17318;52.390;9.754;2023-04-03T05:59:46;3.90;95.30
30534;DHT22;17318;52.390;9.754;2023-04-03T06:02:18;4.00;95.20
30534;DHT22;17318;52.390;9.754;2023-04-03T06:04:44;4.00;95.10
30534;DHT22;17318;52.390;9.754;2023-04-03T06:07:16;4.10;95.10
30534;DHT22;17318;52.390;9.754;2023-04-03T06:09:43;4.10;95.10
30534;DHT22;17318;52.390;9.754;2023-04-03T06:12:09;4.10;95.10
30534;DHT22;17318;52.390;9.754;2023-04-03T06:14:35;4.10;94.90
30534;DHT22;17318;52.390;9.754;2023-04-03T06:17:01;4.10;95.00
30534;DHT22;17318;52.390;9.754;2023-04-03T06:19:27;4.10;95.00
30534;DHT22;17318;52.390;9.754;2023-04-03T06:21:53;4.20;95.00
30534;DHT22;17318;52.390;9.754;2023-04-03T06:24:19;4.20;95.00
30534;DHT22;17318;52.390;9.754;2023-04-03T06:26:47;4.10;94.90
30534;DHT22;17318;52.390;9.754;2023-04-03T06:29:13;4.10;95.00
30534;DHT22;17318;52.390;9.754;2023-04-03T06:31:38;4.10;95.00
30534;DHT22;17318;52.390;9.754;2023-04-03T06:34:05;4.20;95.00
30534;DHT22;17318;52.390;9.754;2023-04-03T06:36:32;4.20;95.00
30534;DHT22;17318;52.390;9.754;2023-04-03T06:38:58;4.20;94.90
30534;DHT22;17318;52.390;9.754;2023-04-03T06:41:25;4.30;94.90
30534;DHT22;17318;52.390;9.754;2023-04-03T06:43:51;4.30;94.90
30534;DHT22;17318;52.390;9.754;2023-04-03T06:46:19;4.40;94.80
30534;DHT22;17318;52.390;9.754;2023-04-03T06:48:45;4.30;94.60
30534;DHT22;17318;52.390;9.754;2023-04-03T06:51:20;4.40;94.60
30534;DHT22;17318;52.390;9.754;2023-04-03T06:53:51;4.50;94.60
30534;DHT22;17318;52.390;9.754;2023-04-03T06:56:17;4.60;94.50
30534;DHT22;17318;52.390;9.754;2023-04-03T06:58:45;4.60;94.40
30534;DHT22;17318;52.390;9.754;2023-04-03T07:01:13;4.60;94.40
30534;DHT22;17318;52.390;9.754;2023-04-03T07:03:39;4.60;94.10
30534;DHT22;17318;52.390;9.754;2023-04-03T07:06:07;4.70;94.10
30534;DHT22;17318;52.390;9.754;2023-04-03T07:08:33;4.70;94.10
30534;DHT22;17318;52.390;9.754;2023-04-03T07:10:59;4.80;94.00
30534;DHT22;17318;52.390;9.754;2023-04-03T07:13:25;4.80;93.80
30534;DHT22;17318;52.390;9.754;2023-04-03T07:15:52;4.90;93.70
30534;DHT22;17318;52.390;9.754;2023-04-03T07:18:18;4.90;93.70
30534;DHT22;17318;52.390;9.754;2023-04-03T07:20:44;5.00;93.60
30534;DHT22;17318;52.390;9.754;2023-04-03T07:23:10;5.00;93.40
30534;DHT22;17318;52.390;9.754;2023-04-03T07:25:36;5.10;93.40
30534;DHT22;17318;52.390;9.754;2023-04-03T07:28:02;5.10;93.20
30534;DHT22;17318;52.390;9.754;2023-04-03T07:30:29;5.20;93.10
30534;DHT22;17318;52.390;9.754;2023-04-03T07:32:55;5.20;92.90
30534;DHT22;17318;52.390;9.754;2023-04-03T07:35:20;5.30;93.00
30534;DHT22;17318;52.390;9.754;2023-04-03T07:37:46;5.40;93.00
30534;DHT22;17318;52.390;9.754;2023-04-03T07:40:12;5.50;93.00
30534;DHT22;17318;52.390;9.754;2023-04-03T07:42:38;5.60;93.00
30534;DHT22;17318;52.390;9.754;2023-04-03T07:45:04;5.70;92.90
30534;DHT22;17318;52.390;9.754;2023-04-03T07:47:30;5.70;92.60
30534;DHT22;17318;52.390;9.754;2023-04-03T07:49:56;5.80;92.60
30534;DHT22;17318;52.390;9.754;2023-04-03T07:52:23;5.90;92.60
30534;DHT22;17318;52.390;9.754;2023-04-03T07:54:49;5.90;92.20
30534;DHT22;17318;52.390;9.754;2023-04-03T07:57:14;5.90;92.10
30534;DHT22;17318;52.390;9.754;2023-04-03T07:59:40;6.00;92.00
30534;DHT22;17318;52.390;9.754;2023-04-03T08:02:11;6.00;91.60
30534;DHT22;17318;52.390;9.754;2023-04-03T08:04:37;6.00;91.70
30534;DHT22;17318;52.390;9.754;2023-04-03T08:07:03;6.00;91.40
30534;DHT22;17318;52.390;9.754;2023-04-03T08:09:29;6.10;91.40
30534;DHT22;17318;52.390;9.754;2023-04-03T08:11:54;6.10;91.30
30534;DHT22;17318;52.390;9.754;2023-04-03T08:14:20;6.30;91.30
30534;DHT22;17318;52.390;9.754;2023-04-03T08:16:47;6.20;91.20
30534;DHT22;17318;52.390;9.754;2023-04-03T08:19:14;6.30;91.20
30534;DHT22;17318;52.390;9.754;2023-04-03T08:21:41;6.40;91.20
30534;DHT22;17318;52.390;9.754;2023-04-03T08:24:09;6.60;91.60
30534;DHT22;17318;52.390;9.754;2023-04-03T08:26:35;7.00;91.90
30534;DHT22;17318;52.390;9.754;2023-04-03T08:29:01;8.20;91.70
30534;DHT22;17318;52.390;9.754;2023-04-03T08:31:27;9.60;90.70
30534;DHT22;17318;52.390;9.754;2023-04-03T08:33:53;10.40;86.50
30534;DHT22;17318;52.390;9.754;2023-04-03T08:36:22;11.50;83.90
30534;DHT22;17318;52.390;9.754;2023-04-03T08:38:49;12.70;80.40
30534;DHT22;17318;52.390;9.754;2023-04-03T08:41:34;13.80;77.20
30534;DHT22;17318;52.390;9.754;2023-04-03T08:44:24;14.60;70.50
30534;DHT22;17318;52.390;9.754;2023-04-03T08:47:04;16.00;70.90
30534;DHT22;17318;52.390;9.754;2023-04-03T08:49:48;16.60;67.50
30534;DHT22;17318;52.390;9.754;2023-04-03T08:52:38;16.40;64.60
30534;DHT22;17318;52.390;9.754;2023-04-03T08:55:14;15.80;63.60
30534;DHT22;17318;52.390;9.754;2023-04-03T08:57:43;16.60;63.00
30534;DHT22;17318;52.390;9.754;2023-04-03T09:02:47;15.40;61.00
30534;DHT22;17318;52.390;9.754;2023-04-03T09:05:20;15.10;61.40
30534;DHT22;17318;52.390;9.754;2023-04-03T09:07:56;15.80;59.90
30534;DHT22;17318;52.390;9.754;2023-04-03T09:10:28;16.90;58.60
30534;DHT22;17318;52.390;9.754;2023-04-03T09:13:04;17.90;57.40
30534;DHT22;17318;52.390;9.754;2023-04-03T09:15:30;18.70;55.50
30534;DHT22;17318;52.390;9.754;2023-04-03T09:18:04;19.70;53.80
30534;DHT22;17318;52.390;9.754;2023-04-03T09:20:46;18.70;50.20
30534;DHT22;17318;52.390;9.754;2023-04-03T09:23:28;19.30;52.90
30534;DHT22;17318;52.390;9.754;2023-04-03T09:26:02;19.90;51.00
30534;DHT22;17318;52.390;9.754;2023-04-03T09:28:32;20.70;49.50
30534;DHT22;17318;52.390;9.754;2023-04-03T09:31:00;21.20;48.70
30534;DHT22;17318;52.390;9.754;2023-04-03T09:33:27;20.30;45.50
30534;DHT22;17318;52.390;9.754;2023-04-03T09:35:54;20.00;46.60
30534;DHT22;17318;52.390;9.754;2023-04-03T09:38:21;20.70;46.40
30534;DHT22;17318;52.390;9.754;2023-04-03T09:40:50;20.20;45.10
30534;DHT22;17318;52.390;9.754;2023-04-03T09:43:35;20.60;44.60
30534;DHT22;17318;52.390;9.754;2023-04-03T09:46:39;21.30;43.20
30534;DHT22;17318;52.390;9.754;2023-04-03T09:49:05;20.30;43.00
30534;DHT22;17318;52.390;9.754;2023-04-03T09:51:32;19.00;43.40
30534;DHT22;17318;52.390;9.754;2023-04-03T09:53:58;18.60;43.20
30534;DHT22;17318;52.390;9.754;2023-04-03T09:56:26;18.30;43.80
30534;DHT22;17318;52.390;9.754;2023-04-03T10:01:28;16.40;44.90
30534;DHT22;17318;52.390;9.754;2023-04-03T10:04:17;17.10;45.10
30534;DHT22;17318;52.390;9.754;2023-04-03T10:06:46;17.70;44.80
30534;DHT22;17318;52.390;9.754;2023-04-03T10:12:02;17.00;44.70
30534;DHT22;17318;52.390;9.754;2023-04-03T10:14:53;17.00;44.80
30534;DHT22;17318;52.390;9.754;2023-04-03T10:23:01;15.70;46.90
30534;DHT22;17318;52.390;9.754;2023-04-03T10:25:52;15.50;46.10
30534;DHT22;17318;52.390;9.754;2023-04-03T10:28:35;15.30;46.40
30534;DHT22;17318;52.390;9.754;2023-04-03T10:31:28;14.80;47.00
30534;DHT22;17318;52.390;9.754;2023-04-03T10:37:06;13.80;46.90
30534;DHT22;17318;52.390;9.754;2023-04-03T10:39:53;13.40;46.90
30534;DHT22;17318;52.390;9.754;2023-04-03T10:56:17;13.90;46.00
30534;DHT22;17318;52.390;9.754;2023-04-03T10:59:18;13.30;45.90
30534;DHT22;17318;52.390;9.754;2023-04-03T11:01:46;13.60;46.40
30534;DHT22;17318;52.390;9.754;2023-04-03T11:04:14;13.70;46.20
30534;DHT22;17318;52.390;9.754;2023-04-03T11:06:51;13.40;46.20
30534;DHT22;17318;52.390;9.754;2023-04-03T11:09:24;13.20;47.20
30534;DHT22;17318;52.390;9.754;2023-04-03T11:12:01;13.70;47.40
30534;DHT22;17318;52.390;9.754;2023-04-03T11:14:30;14.50;48.00
30534;DHT22;17318;52.390;9.754;2023-04-03T11:22:29;16.40;46.00
30534;DHT22;17318;52.390;9.754;2023-04-03T11:25:04;15.80;46.20
30534;DHT22;17318;52.390;9.754;2023-04-03T11:27:38;15.20;46.60
30534;DHT22;17318;52.390;9.754;2023-04-03T11:30:09;14.60;46.80
30534;DHT22;17318;52.390;9.754;2023-04-03T11:33:05;14.10;46.80
30534;DHT22;17318;52.390;9.754;2023-04-03T11:35:34;13.70;47.80
30534;DHT22;17318;52.390;9.754;2023-04-03T11:38:03;13.10;48.30
30534;DHT22;17318;52.390;9.754;2023-04-03T11:40:33;12.80;48.80
30534;DHT22;17318;52.390;9.754;2023-04-03T11:48:04;12.00;49.90
30534;DHT22;17318;52.390;9.754;2023-04-03T11:50:47;11.90;50.50
30534;DHT22;17318;52.390;9.754;2023-04-03T11:58:15;11.70;50.90
30534;DHT22;17318;52.390;9.754;2023-04-03T12:13:41;11.70;50.70
30534;DHT22;17318;52.390;9.754;2023-04-03T12:29:47;11.10;49.80
30534;DHT22;17318;52.390;9.754;2023-04-03T12:40:46;11.30;50.40
30534;DHT22;17318;52.390;9.754;2023-04-03T12:48:27;11.60;50.50
30534;DHT22;17318;52.390;9.754;2023-04-03T12:50:54;11.60;49.00
30534;DHT22;17318;52.390;9.754;2023-04-03T12:53:35;11.60;48.70
30534;DHT22;17318;52.390;9.754;2023-04-03T12:56:25;11.60;49.10
30534;DHT22;17318;52.390;9.754;2023-04-03T12:58:53;11.60;48.40
30534;DHT22;17318;52.390;9.754;2023-04-03T13:01:22;11.70;49.20
30534;DHT22;17318;52.390;9.754;2023-04-03T13:03:54;11.80;49.20
30534;DHT22;17318;52.390;9.754;2023-04-03T13:06:28;11.80;48.90
30534;DHT22;17318;52.390;9.754;2023-04-03T13:08:58;11.80;49.10
30534;DHT22;17318;52.390;9.754;2023-04-03T13:11:26;11.80;49.30
30534;DHT22;17318;52.390;9.754;2023-04-03T13:14:01;11.80;49.00
30534;DHT22;17318;52.390;9.754;2023-04-03T13:16:28;11.80;48.80
30534;DHT22;17318;52.390;9.754;2023-04-03T13:18:55;11.80;48.90
30534;DHT22;17318;52.390;9.754;2023-04-03T13:21:25;11.60;48.50
30534;DHT22;17318;52.390;9.754;2023-04-03T13:23:54;11.50;48.60
30534;DHT22;17318;52.390;9.754;2023-04-03T13:26:22;11.40;48.60
30534;DHT22;17318;52.390;9.754;2023-04-03T13:28:49;11.50;49.30
30534;DHT22;17318;52.390;9.754;2023-04-03T13:31:36;11.70;49.40
30534;DHT22;17318;52.390;9.754;2023-04-03T13:34:06;11.70;49.00
30534;DHT22;17318;52.390;9.754;2023-04-03T13:36:35;11.70;48.90
30534;DHT22;17318;52.390;9.754;2023-04-03T13:41:39;11.60;49.10
30534;DHT22;17318;52.390;9.754;2023-04-03T13:44:30;11.60;49.60
30534;DHT22;17318;52.390;9.754;2023-04-03T13:47:22;11.50;50.00
30534;DHT22;17318;52.390;9.754;2023-04-03T13:50:17;11.50;50.30
30534;DHT22;17318;52.390;9.754;2023-04-03T13:55:29;11.60;50.30
30534;DHT22;17318;52.390;9.754;2023-04-03T14:00:56;11.50;50.10
30534;DHT22;17318;52.390;9.754;2023-04-03T14:03:32;11.50;49.70
30534;DHT22;17318;52.390;9.754;2023-04-03T14:05:59;11.40;49.80
30534;DHT22;17318;52.390;9.754;2023-04-03T14:08:26;11.30;49.70
30534;DHT22;17318;52.390;9.754;2023-04-03T14:10:53;11.40;49.20
30534;DHT22;17318;52.390;9.754;2023-04-03T14:13:19;11.40;49.30
30534;DHT22;17318;52.390;9.754;2023-04-03T14:15:47;11.40;48.90
30534;DHT22;17318;52.390;9.754;2023-04-03T14:18:16;11.30;48.50
30534;DHT22;17318;52.390;9.754;2023-04-03T14:20:43;11.30;49.00
30534;DHT22;17318;52.390;9.754;2023-04-03T14:23:09;11.40;49.40
30534;DHT22;17318;52.390;9.754;2023-04-03T14:25:35;11.40;48.80
30534;DHT22;17318;52.390;9.754;2023-04-03T14:28:01;11.30;48.70
30534;DHT22;17318;52.390;9.754;2023-04-03T14:30:37;11.20;48.60
30534;DHT22;17318;52.390;9.754;2023-04-03T14:33:03;11.10;49.70
30534;DHT22;17318;52.390;9.754;2023-04-03T14:35:29;11.10;49.60
30534;DHT22;17318;52.390;9.754;2023-04-03T14:37:55;11.10;49.60
30534;DHT22;17318;52.390;9.754;2023-04-03T14:40:24;11.10;49.50
30534;DHT22;17318;52.390;9.754;2023-04-03T14:42:51;11.10;49.30
30534;DHT22;17318;52.390;9.754;2023-04-03T14:45:22;11.10;49.30
30534;DHT22;17318;52.390;9.754;2023-04-03T14:47:54;11.20;49.50
30534;DHT22;17318;52.390;9.754;2023-04-03T14:50:26;11.20;49.30
30534;DHT22;17318;52.390;9.754;2023-04-03T14:52:55;11.20;48.60
30534;DHT22;17318;52.390;9.754;2023-04-03T14:55:23;11.10;47.80
30534;DHT22;17318;52.390;9.754;2023-04-03T14:57:49;11.10;48.40
30534;DHT22;17318;52.390;9.754;2023-04-03T15:00:17;11.10;49.00
30534;DHT22;17318;52.390;9.754;2023-04-03T15:02:43;11.00;49.20
30534;DHT22;17318;52.390;9.754;2023-04-03T15:05:11;11.00;49.50
30534;DHT22;17318;52.390;9.754;2023-04-03T15:07:48;10.80;49.40
30534;DHT22;17318;52.390;9.754;2023-04-03T15:10:19;10.70;49.40
30534;DHT22;17318;52.390;9.754;2023-04-03T15:12:45;10.60;49.60
30534;DHT22;17318;52.390;9.754;2023-04-03T15:15:11;10.60;50.00
30534;DHT22;17318;52.390;9.754;2023-04-03T15:17:38;10.50;49.80
30534;DHT22;17318;52.390;9.754;2023-04-03T15:20:15;10.40;49.90
30534;DHT22;17318;52.390;9.754;2023-04-03T15:22:42;10.40;50.20
30534;DHT22;17318;52.390;9.754;2023-04-03T15:25:08;10.50;50.60
30534;DHT22;17318;52.390;9.754;2023-04-03T15:27:35;10.60;50.50
30534;DHT22;17318;52.390;9.754;2023-04-03T15:30:01;10.70;50.60
30534;DHT22;17318;52.390;9.754;2023-04-03T15:32:27;10.80;50.80
30534;DHT22;17318;52.390;9.754;2023-04-03T15:34:54;10.90;50.50
30534;DHT22;17318;52.390;9.754;2023-04-03T15:37:20;10.80;50.60
30534;DHT22;17318;52.390;9.754;2023-04-03T15:39:45;10.80;50.70
30534;DHT22;17318;52.390;9.754;2023-04-03T15:42:11;10.80;50.70
30534;DHT22;17318;52.390;9.754;2023-04-03T15:44:38;10.70;50.40
30534;DHT22;17318;52.390;9.754;2023-04-03T15:47:04;10.70;50.50
30534;DHT22;17318;52.390;9.754;2023-04-03T15:49:32;10.50;50.40
30534;DHT22;17318;52.390;9.754;2023-04-03T15:51:58;10.40;50.70
30534;DHT22;17318;52.390;9.754;2023-04-03T15:54:24;10.30;50.70
30534;DHT22;17318;52.390;9.754;2023-04-03T15:56:51;10.30;51.00
30534;DHT22;17318;52.390;9.754;2023-04-03T15:59:17;10.20;51.20
30534;DHT22;17318;52.390;9.754;2023-04-03T16:01:43;10.20;50.90
30534;DHT22;17318;52.390;9.754;2023-04-03T16:04:09;10.10;50.80
30534;DHT22;17318;52.390;9.754;2023-04-03T16:06:36;10.10;51.00
30534;DHT22;17318;52.390;9.754;2023-04-03T16:09:03;10.10;51.00
30534;DHT22;17318;52.390;9.754;2023-04-03T16:11:29;10.10;51.00
30534;DHT22;17318;52.390;9.754;2023-04-03T16:13:55;10.20;51.20
30534;DHT22;17318;52.390;9.754;2023-04-03T16:16:21;10.30;51.30
30534;DHT22;17318;52.390;9.754;2023-04-03T16:18:47;10.30;51.00
30534;DHT22;17318;52.390;9.754;2023-04-03T16:21:15;10.40;51.50
30534;DHT22;17318;52.390;9.754;2023-04-03T16:23:42;10.50;51.60
30534;DHT22;17318;52.390;9.754;2023-04-03T16:26:08;10.60;51.90
30534;DHT22;17318;52.390;9.754;2023-04-03T16:28:34;10.60;51.80
30534;DHT22;17318;52.390;9.754;2023-04-03T16:31:01;10.60;51.20
30534;DHT22;17318;52.390;9.754;2023-04-03T16:33:27;10.60;50.90
30534;DHT22;17318;52.390;9.754;2023-04-03T16:35:53;10.40;50.30
30534;DHT22;17318;52.390;9.754;2023-04-03T16:38:19;10.30;50.40
30534;DHT22;17318;52.390;9.754;2023-04-03T16:40:45;10.20;50.30
30534;DHT22;17318;52.390;9.754;2023-04-03T16:43:11;10.20;50.60
30534;DHT22;17318;52.390;9.754;2023-04-03T16:45:37;10.10;50.80
30534;DHT22;17318;52.390;9.754;2023-04-03T16:48:03;10.10;51.10
30534;DHT22;17318;52.390;9.754;2023-04-03T16:50:29;10.00;51.00
30534;DHT22;17318;52.390;9.754;2023-04-03T16:52:55;9.90;52.30
30534;DHT22;17318;52.390;9.754;2023-04-03T16:55:20;10.00;51.70
30534;DHT22;17318;52.390;9.754;2023-04-03T16:57:46;9.80;52.80
30534;DHT22;17318;52.390;9.754;2023-04-03T17:00:12;9.80;53.00
30534;DHT22;17318;52.390;9.754;2023-04-03T17:02:40;9.80;53.20
30534;DHT22;17318;52.390;9.754;2023-04-03T17:05:06;9.90;53.20
30534;DHT22;17318;52.390;9.754;2023-04-03T17:07:32;9.90;53.50
30534;DHT22;17318;52.390;9.754;2023-04-03T17:09:58;10.00;53.20
30534;DHT22;17318;52.390;9.754;2023-04-03T17:12:24;9.90;53.40
30534;DHT22;17318;52.390;9.754;2023-04-03T17:14:50;9.90;52.90
30534;DHT22;17318;52.390;9.754;2023-04-03T17:17:20;9.90;52.70
30534;DHT22;17318;52.390;9.754;2023-04-03T17:19:46;9.80;52.60
30534;DHT22;17318;52.390;9.754;2023-04-03T17:22:12;9.80;52.90
30534;DHT22;17318;52.390;9.754;2023-04-03T17:24:38;9.80;52.90
30534;DHT22;17318;52.390;9.754;2023-04-03T17:27:04;9.70;53.10
30534;DHT22;17318;52.390;9.754;2023-04-03T17:29:30;9.70;53.10
30534;DHT22;17318;52.390;9.754;2023-04-03T17:31:55;9.60;53.10